Time;durP1;ratioP1;P1;durP2;ratioP2;P2;SDS_P1;SDS_P2;PMS_P1;PMS_P2;Temp;Humidity;BMP_temperature;BMP_pressure;BME280_temperature;BME280_humidity;BME280_pressure;Samples;Min_cycle;Max_cycle;Signal;HPM_P1;HPM_P2
2021/08/10 00:02:23;;;;;;;6.30;3.30;;;17.10;81.20;;;;;;5051790;28;20509;-73
2021/08/10 00:04:50;;;;;;;4.30;3.10;;;17.00;80.90;;;;;;5052650;28;20441;-72
2021/08/10 00:07:16;;;;;;;6.00;2.87;;;16.90;81.50;;;;;;5044127;28;20480;-72
2021/08/10 00:09:42;;;;;;;6.20;3.13;;;16.90;81.40;;;;;;5050025;28;20462;-72
2021/08/10 00:12:09;;;;;;;6.03;3.23;;;16.90;81.50;;;;;;5052098;28;20656;-72
2021/08/10 00:14:35;;;;;;;4.60;2.80;;;16.80;81.70;;;;;;5046108;28;20196;-72
2021/08/10 00:17:00;;;;;;;5.30;3.20;;;16.80;82.10;;;;;;5046257;28;20434;-72
2021/08/10 00:19:26;;;;;;;5.00;3.07;;;16.80;82.40;;;;;;5043385;28;20224;-71
2021/08/10 00:21:52;;;;;;;4.50;2.73;;;16.70;82.40;;;;;;5048409;28;20184;-71
2021/08/10 00:24:18;;;;;;;4.70;2.83;;;16.70;82.80;;;;;;5052858;28;20185;-72
2021/08/10 00:26:43;;;;;;;4.00;2.90;;;16.70;82.80;;;;;;5058004;28;20183;-72
2021/08/10 00:29:09;;;;;;;3.90;3.00;;;16.60;82.70;;;;;;5046795;28;20221;-73
2021/08/10 00:31:35;;;;;;;4.80;2.70;;;16.60;83.10;;;;;;5059503;28;20190;-72
2021/08/10 00:34:01;;;;;;;3.97;2.70;;;16.60;83.30;;;;;;5055813;28;20201;-73
2021/08/10 00:36:26;;;;;;;5.87;2.77;;;16.60;83.70;;;;;;5053003;28;20208;-73
2021/08/10 00:38:52;;;;;;;4.70;2.57;;;16.60;83.60;;;;;;5061109;28;20203;-73
2021/08/10 00:41:18;;;;;;;5.40;3.00;;;16.70;83.30;;;;;;5051627;28;20194;-74
2021/08/10 00:43:46;;;;;;;8.13;4.10;;;16.60;83.30;;;;;;5055805;28;20181;-74
2021/08/10 00:46:14;;;;;;;9.80;4.07;;;16.60;83.30;;;;;;5049580;28;20180;-73
2021/08/10 00:48:40;;;;;;;5.87;3.37;;;16.50;83.70;;;;;;5058492;28;20514;-73
2021/08/10 00:51:09;;;;;;;7.40;3.10;;;16.50;83.70;;;;;;5052564;28;20423;-73
2021/08/10 00:53:35;;;;;;;5.80;3.03;;;16.40;84.10;;;;;;5050240;28;20466;-73
2021/08/10 00:56:05;;;;;;;3.93;2.93;;;16.40;84.10;;;;;;5046244;28;20461;-72
2021/08/10 00:58:32;;;;;;;3.60;2.70;;;16.40;84.30;;;;;;5048421;28;20473;-73
2021/08/10 01:00:58;;;;;;;5.40;2.87;;;16.50;84.10;;;;;;5047473;28;20524;-73
2021/08/10 01:03:24;;;;;;;9.13;3.60;;;16.50;83.80;;;;;;5045694;28;21124;-72
2021/08/10 01:05:51;;;;;;;4.87;2.80;;;16.50;84.00;;;;;;5048094;28;20421;-73
2021/08/10 01:08:26;;;;;;;10.13;3.47;;;16.40;84.40;;;;;;5041950;28;20488;-73
2021/08/10 01:11:08;;;;;;;4.00;2.70;;;16.30;84.70;;;;;;5051480;28;20441;-72
2021/08/10 01:14:05;;;;;;;7.30;3.20;;;16.30;85.00;;;;;;5040813;28;20465;-71
2021/08/10 01:17:02;;;;;;;6.50;3.37;;;16.20;85.50;;;;;;5044740;28;20777;-72
2021/08/10 01:19:56;;;;;;;7.10;3.83;;;16.10;86.30;;;;;;5048628;28;20462;-73
2021/08/10 01:22:24;;;;;;;5.90;3.60;;;16.10;86.00;;;;;;5048287;28;21261;-74
2021/08/10 01:25:28;;;;;;;7.27;3.47;;;16.10;86.20;;;;;;5046272;28;20412;-73
2021/08/10 01:28:25;;;;;;;7.37;3.50;;;16.10;86.20;;;;;;5046094;28;20789;-72
2021/08/10 01:31:00;;;;;;;11.70;3.73;;;16.10;86.50;;;;;;5046902;28;20513;-73
2021/08/10 01:33:27;;;;;;;4.90;3.07;;;16.10;86.50;;;;;;5042961;28;20433;-72
2021/08/10 01:35:54;;;;;;;4.57;2.90;;;16.10;86.60;;;;;;5044243;28;20437;-72
2021/08/10 01:38:23;;;;;;;5.27;3.00;;;16.00;86.80;;;;;;5048891;28;20870;-73
2021/08/10 01:40:50;;;;;;;5.27;3.63;;;16.00;87.00;;;;;;5050697;28;20445;-73
2021/08/10 01:43:16;;;;;;;9.43;3.57;;;16.10;87.00;;;;;;5050845;28;20478;-71
2021/08/10 01:45:43;;;;;;;7.27;3.13;;;16.00;87.30;;;;;;5044009;28;20425;-72
2021/08/10 01:48:11;;;;;;;5.37;3.33;;;15.90;88.00;;;;;;5046565;28;20428;-73
2021/08/10 01:50:38;;;;;;;7.03;3.97;;;15.80;88.10;;;;;;5042576;28;20466;-73
2021/08/10 01:53:06;;;;;;;6.10;3.40;;;15.80;88.70;;;;;;5045920;28;20918;-73
2021/08/10 01:55:34;;;;;;;7.03;3.60;;;15.70;88.90;;;;;;5045180;28;20516;-73
2021/08/10 01:58:01;;;;;;;4.67;3.20;;;15.80;88.90;;;;;;5047864;28;20507;-72
2021/08/10 02:00:27;;;;;;;4.60;3.17;;;15.80;88.60;;;;;;5040486;28;20535;-72
2021/08/10 02:02:54;;;;;;;6.00;3.60;;;15.80;88.60;;;;;;5045776;28;20830;-73
2021/08/10 02:05:21;;;;;;;4.97;3.50;;;15.80;88.90;;;;;;5047981;28;20438;-73
2021/08/10 02:07:48;;;;;;;6.47;3.20;;;15.70;89.00;;;;;;5046754;28;20446;-72
2021/08/10 02:10:14;;;;;;;9.63;3.83;;;15.70;89.20;;;;;;5046040;28;20589;-73
2021/08/10 02:12:40;;;;;;;4.83;3.27;;;15.70;89.30;;;;;;5045799;28;20498;-73
2021/08/10 02:15:06;;;;;;;4.73;3.67;;;15.70;89.70;;;;;;5047892;28;20186;-72
2021/08/10 02:17:32;;;;;;;8.10;3.77;;;15.70;90.10;;;;;;5056779;28;20231;-73
2021/08/10 02:19:58;;;;;;;4.83;3.30;;;15.70;90.20;;;;;;5050442;28;20822;-72
2021/08/10 02:22:24;;;;;;;5.10;3.50;;;15.70;90.30;;;;;;5055060;28;20192;-74
2021/08/10 02:25:01;;;;;;;4.27;3.23;;;15.70;90.40;;;;;;5054604;28;20963;-74
2021/08/10 02:27:52;;;;;;;7.57;3.50;;;15.80;90.50;;;;;;5053035;28;20504;-74
2021/08/10 02:30:24;;;;;;;5.60;3.33;;;15.80;90.40;;;;;;5054174;28;20440;-74
2021/08/10 02:32:51;;;;;;;5.20;3.43;;;15.80;90.50;;;;;;5047215;28;20426;-74
2021/08/10 02:35:20;;;;;;;6.10;3.70;;;15.80;90.70;;;;;;5054543;28;20717;-74
2021/08/10 02:37:48;;;;;;;6.53;3.20;;;15.80;90.10;;;;;;5050213;28;20519;-74
2021/08/10 02:40:17;;;;;;;4.33;3.50;;;15.80;89.70;;;;;;5057926;28;20450;-74
2021/08/10 02:42:48;;;;;;;5.40;3.17;;;15.80;89.90;;;;;;5059630;28;20423;-74
2021/08/10 02:45:14;;;;;;;10.10;3.70;;;15.80;89.60;;;;;;5057818;28;20418;-74
2021/08/10 02:47:54;;;;;;;5.67;3.27;;;15.80;89.50;;;;;;5045569;28;20426;-73
2021/08/10 02:50:21;;;;;;;5.70;3.13;;;15.70;89.90;;;;;;5048059;28;20952;-73
2021/08/10 02:52:47;;;;;;;6.73;3.80;;;15.50;90.40;;;;;;5049435;28;20423;-73
2021/08/10 02:55:13;;;;;;;9.00;3.73;;;15.30;90.90;;;;;;5043570;28;20433;-74
2021/08/10 02:57:56;;;;;;;5.90;3.93;;;15.20;91.30;;;;;;5049811;28;20655;-73
2021/08/10 03:00:24;;;;;;;7.27;3.60;;;15.20;91.60;;;;;;5038400;28;20451;-73
2021/08/10 03:02:54;;;;;;;7.07;4.27;;;15.10;92.00;;;;;;5043701;28;20403;-72
2021/08/10 03:05:26;;;;;;;5.50;3.70;;;15.10;92.20;;;;;;5045287;28;20434;-73
2021/08/10 03:07:55;;;;;;;5.13;3.40;;;14.90;92.30;;;;;;5041588;28;20818;-73
2021/08/10 03:10:23;;;;;;;4.97;3.47;;;15.00;92.70;;;;;;5043250;28;20981;-74
2021/08/10 03:12:50;;;;;;;6.13;3.80;;;14.90;92.50;;;;;;5038706;28;20418;-73
2021/08/10 03:15:23;;;;;;;7.70;4.13;;;14.90;92.60;;;;;;5047468;28;20399;-73
2021/08/10 03:17:52;;;;;;;5.30;3.23;;;14.90;92.60;;;;;;5050293;28;20909;-74
2021/08/10 03:20:21;;;;;;;9.93;4.40;;;14.90;92.60;;;;;;5053265;28;20941;-73
2021/08/10 03:22:48;;;;;;;4.70;3.20;;;14.80;92.70;;;;;;5050775;28;20476;-73
2021/08/10 03:25:16;;;;;;;6.67;3.47;;;14.80;93.00;;;;;;5053459;28;20420;-74
2021/08/10 03:27:43;;;;;;;7.07;3.70;;;14.80;93.00;;;;;;5049631;28;20800;-72
2021/08/10 03:30:11;;;;;;;5.60;4.10;;;14.90;93.00;;;;;;5048676;28;20446;-74
2021/08/10 03:32:37;;;;;;;10.53;3.80;;;14.90;92.80;;;;;;5049028;28;20423;-73
2021/08/10 03:35:05;;;;;;;6.60;3.87;;;14.90;93.00;;;;;;5046830;28;20521;-73
2021/08/10 03:37:32;;;;;;;6.57;3.73;;;14.90;93.00;;;;;;5044269;28;20451;-74
2021/08/10 03:40:00;;;;;;;9.47;3.53;;;14.90;92.80;;;;;;5050346;28;20520;-74
2021/08/10 03:42:26;;;;;;;6.37;3.80;;;15.00;92.80;;;;;;5052718;28;20414;-74
2021/08/10 03:44:54;;;;;;;5.70;3.43;;;15.00;92.50;;;;;;5049140;28;20429;-74
2021/08/10 03:47:20;;;;;;;9.43;3.93;;;15.10;92.50;;;;;;5045891;28;20840;-73
2021/08/10 03:49:47;;;;;;;7.73;3.30;;;15.10;92.30;;;;;;5046324;28;20466;-74
2021/08/10 03:52:14;;;;;;;9.30;3.57;;;15.10;92.20;;;;;;5048932;28;20523;-73
2021/08/10 03:54:41;;;;;;;7.70;3.70;;;15.20;92.30;;;;;;5046255;28;20537;-74
2021/08/10 03:57:17;;;;;;;5.53;4.10;;;15.20;92.50;;;;;;5051675;28;20434;-73
2021/08/10 03:59:46;;;;;;;6.70;4.10;;;15.20;92.50;;;;;;5052482;28;20471;-73
2021/08/10 04:02:16;;;;;;;4.70;3.10;;;15.20;92.70;;;;;;5050583;28;20849;-74
2021/08/10 04:04:51;;;;;;;5.90;3.50;;;15.20;92.90;;;;;;5053095;28;20442;-74
2021/08/10 04:07:18;;;;;;;6.20;3.70;;;15.30;93.00;;;;;;5052680;28;20464;-73
2021/08/10 04:09:44;;;;;;;5.50;3.30;;;15.40;92.90;;;;;;5052522;28;20466;-73
2021/08/10 04:12:12;;;;;;;6.93;4.10;;;15.40;93.00;;;;;;5052960;28;20411;-73
2021/08/10 04:14:40;;;;;;;4.20;3.30;;;15.40;92.40;;;;;;5050437;28;20925;-74
2021/08/10 04:17:06;;;;;;;7.23;3.90;;;15.40;92.10;;;;;;5050217;28;20419;-72
2021/08/10 04:19:45;;;;;;;4.60;3.47;;;15.50;91.60;;;;;;5050896;28;20478;-73
2021/08/10 04:22:11;;;;;;;4.80;3.43;;;15.50;91.10;;;;;;5051492;28;20430;-75
2021/08/10 04:24:37;;;;;;;4.80;3.60;;;15.60;90.70;;;;;;5048874;28;20438;-74
2021/08/10 04:27:03;;;;;;;8.73;4.70;;;15.60;90.60;;;;;;5048767;28;20419;-73
2021/08/10 04:29:29;;;;;;;5.03;3.23;;;15.50;90.80;;;;;;5053143;28;20204;-73
2021/08/10 04:31:55;;;;;;;8.20;4.00;;;15.50;90.80;;;;;;5052506;28;20783;-74
2021/08/10 04:34:20;;;;;;;4.87;4.00;;;15.50;91.10;;;;;;5052005;28;20616;-72
2021/08/10 04:36:46;;;;;;;5.43;3.60;;;15.50;91.40;;;;;;5055617;28;20205;-72
2021/08/10 04:39:12;;;;;;;7.53;3.40;;;15.50;91.60;;;;;;5045663;28;20247;-74
2021/08/10 04:41:37;;;;;;;6.80;3.70;;;15.60;91.00;;;;;;5053586;28;20196;-74
2021/08/10 04:44:04;;;;;;;6.67;3.70;;;15.60;90.80;;;;;;5049058;28;20185;-79
2021/08/10 04:46:30;;;;;;;7.70;3.80;;;15.60;90.80;;;;;;5049840;28;20188;-76
2021/08/10 04:48:56;;;;;;;7.63;4.23;;;15.60;91.00;;;;;;5054431;28;20428;-78
2021/08/10 04:51:22;;;;;;;6.50;4.17;;;15.40;91.50;;;;;;5057184;28;20434;-77
2021/08/10 04:53:48;;;;;;;8.70;3.87;;;15.40;91.80;;;;;;5053843;28;20428;-77
2021/08/10 04:56:14;;;;;;;9.73;4.17;;;15.40;91.80;;;;;;5054852;28;20846;-77
2021/08/10 04:58:40;;;;;;;7.13;4.10;;;15.50;91.60;;;;;;5053279;28;20474;-78
2021/08/10 05:01:06;;;;;;;5.63;3.40;;;15.50;91.50;;;;;;5051344;28;20192;-77
2021/08/10 05:03:33;;;;;;;10.93;3.70;;;15.60;91.60;;;;;;5042176;28;20420;-76
2021/08/10 05:05:59;;;;;;;5.63;3.77;;;15.70;91.10;;;;;;5043967;28;20537;-77
2021/08/10 05:08:25;;;;;;;8.83;4.20;;;15.80;90.60;;;;;;5044560;28;20438;-77
2021/08/10 05:10:53;;;;;;;6.23;3.60;;;15.90;90.50;;;;;;5046539;28;20466;-79
2021/08/10 05:13:19;;;;;;;7.83;3.90;;;15.90;90.60;;;;;;5041735;28;20909;-72
2021/08/10 05:15:44;;;;;;;7.03;4.13;;;15.90;90.50;;;;;;5045540;28;20523;-73
2021/08/10 05:18:10;;;;;;;11.23;4.20;;;15.90;90.50;;;;;;5039037;28;20599;-74
2021/08/10 05:20:36;;;;;;;6.30;4.03;;;15.90;90.70;;;;;;5042558;28;20276;-73
2021/08/10 05:23:02;;;;;;;7.57;4.10;;;16.00;90.40;;;;;;5043262;28;20185;-74
2021/08/10 05:25:28;;;;;;;8.03;3.80;;;16.10;90.10;;;;;;5042601;28;20181;-74
2021/08/10 05:27:54;;;;;;;4.83;3.40;;;16.10;90.20;;;;;;5043656;28;20427;-74
2021/08/10 05:30:19;;;;;;;9.90;4.10;;;16.30;89.90;;;;;;5040523;28;20230;-73
2021/08/10 05:32:45;;;;;;;7.20;3.50;;;16.40;88.40;;;;;;5042495;28;20474;-73
2021/08/10 05:35:11;;;;;;;8.20;4.13;;;16.40;88.60;;;;;;5046347;28;20321;-73
2021/08/10 05:37:37;;;;;;;6.60;4.10;;;16.40;88.60;;;;;;5045155;28;20199;-74
2021/08/10 05:40:03;;;;;;;9.50;4.13;;;16.40;88.70;;;;;;5049829;28;20826;-74
2021/08/10 05:42:29;;;;;;;6.47;3.53;;;16.40;88.70;;;;;;5050403;28;20191;-73
2021/08/10 05:44:55;;;;;;;6.70;4.00;;;16.50;88.40;;;;;;5049262;28;20425;-73
2021/08/10 05:47:20;;;;;;;8.77;3.67;;;16.50;88.30;;;;;;5043709;28;20883;-73
2021/08/10 05:49:46;;;;;;;8.87;4.53;;;16.60;88.30;;;;;;5050075;28;20217;-74
2021/08/10 05:52:12;;;;;;;8.63;4.00;;;16.80;87.40;;;;;;5050357;28;20192;-73
2021/08/10 05:54:38;;;;;;;6.20;3.90;;;16.90;87.10;;;;;;5049976;28;20191;-75
2021/08/10 05:57:04;;;;;;;6.93;3.90;;;17.00;86.60;;;;;;5050614;28;20274;-74
2021/08/10 05:59:29;;;;;;;3.83;3.37;;;17.20;85.60;;;;;;5050016;28;20584;-74
2021/08/10 06:01:59;;;;;;;6.13;3.70;;;17.30;85.60;;;;;;5049938;28;20517;-72
2021/08/10 06:04:25;;;;;;;6.17;3.47;;;17.40;85.60;;;;;;5050218;28;20563;-74
2021/08/10 06:06:51;;;;;;;9.23;4.57;;;17.50;85.30;;;;;;5045224;28;20427;-74
2021/08/10 06:09:17;;;;;;;6.87;3.87;;;17.70;83.80;;;;;;5046691;28;20451;-73
2021/08/10 06:11:43;;;;;;;5.40;3.47;;;17.80;83.10;;;;;;5040281;28;20427;-74
2021/08/10 06:14:08;;;;;;;14.70;4.60;;;17.80;82.80;;;;;;5044287;28;20282;-75
2021/08/10 06:16:34;;;;;;;7.23;4.00;;;17.90;83.00;;;;;;5050193;28;20295;-75
2021/08/10 06:19:01;;;;;;;4.60;3.70;;;17.90;82.50;;;;;;5048325;28;20697;-74
2021/08/10 06:21:27;;;;;;;5.60;3.47;;;17.90;82.50;;;;;;5049988;28;20619;-73
2021/08/10 06:23:53;;;;;;;7.10;3.63;;;18.00;81.90;;;;;;5049101;28;20418;-76
2021/08/10 06:26:20;;;;;;;10.60;4.50;;;18.20;81.10;;;;;;5048444;28;20184;-73
2021/08/10 06:28:46;;;;;;;6.47;3.60;;;18.30;80.20;;;;;;5043087;28;20206;-73
2021/08/10 06:31:12;;;;;;;8.80;3.80;;;18.30;80.20;;;;;;5042673;28;20877;-73
2021/08/10 06:33:39;;;;;;;4.70;3.93;;;18.20;80.50;;;;;;5041775;28;20195;-73
2021/08/10 06:36:05;;;;;;;12.60;4.00;;;18.20;81.10;;;;;;5041883;28;20716;-74
2021/08/10 06:38:31;;;;;;;8.23;3.37;;;18.30;80.50;;;;;;5047979;28;20467;-72
2021/08/10 06:40:57;;;;;;;7.37;3.67;;;18.30;79.60;;;;;;5052888;28;20435;-74
2021/08/10 06:43:23;;;;;;;4.97;3.53;;;18.30;80.00;;;;;;5051610;28;20423;-73
2021/08/10 06:45:48;;;;;;;12.07;4.37;;;18.40;79.50;;;;;;5046905;28;20184;-74
2021/08/10 06:48:14;;;;;;;6.60;4.30;;;18.50;79.00;;;;;;5049344;28;20192;-74
2021/08/10 06:50:40;;;;;;;6.50;4.23;;;18.60;78.60;;;;;;5049415;28;20647;-74
2021/08/10 06:53:06;;;;;;;4.33;3.17;;;18.70;79.00;;;;;;5045056;28;20917;-74
2021/08/10 06:55:32;;;;;;;6.83;3.77;;;18.80;78.60;;;;;;5049314;28;20177;-73
2021/08/10 06:57:59;;;;;;;9.07;4.10;;;18.80;77.60;;;;;;5044815;28;20419;-74
2021/08/10 07:00:25;;;;;;;13.63;4.20;;;18.90;77.70;;;;;;5041145;28;20201;-73
2021/08/10 07:02:50;;;;;;;11.40;4.30;;;19.00;77.80;;;;;;5048975;28;20412;-73
2021/08/10 07:05:17;;;;;;;6.57;3.23;;;19.20;77.60;;;;;;5048892;28;20419;-73
2021/08/10 07:07:43;;;;;;;7.40;3.80;;;19.50;76.40;;;;;;5049478;28;20201;-73
2021/08/10 07:10:09;;;;;;;7.30;3.77;;;19.70;75.70;;;;;;5047284;28;20447;-75
2021/08/10 07:12:35;;;;;;;5.50;3.47;;;19.90;73.50;;;;;;5041085;28;20192;-75
2021/08/10 07:15:01;;;;;;;7.83;3.50;;;20.10;72.90;;;;;;5049191;28;20583;-74
2021/08/10 07:17:27;;;;;;;5.13;3.40;;;20.10;72.40;;;;;;5048227;28;20263;-73
2021/08/10 07:19:52;;;;;;;6.50;3.53;;;20.20;71.80;;;;;;5042641;28;20635;-75
2021/08/10 07:22:18;;;;;;;6.13;3.57;;;20.30;71.60;;;;;;5047218;28;20658;-74
2021/08/10 07:24:44;;;;;;;7.80;3.17;;;20.40;71.40;;;;;;5047838;28;20191;-72
2021/08/10 07:27:09;;;;;;;5.97;3.63;;;20.50;71.10;;;;;;5049532;28;20256;-75
2021/08/10 07:29:35;;;;;;;8.37;3.20;;;20.70;70.40;;;;;;5049095;28;20216;-73
2021/08/10 07:32:01;;;;;;;5.10;3.10;;;20.70;70.80;;;;;;5048048;28;20185;-74
2021/08/10 07:34:27;;;;;;;5.00;2.90;;;20.70;70.50;;;;;;5040777;28;20234;-74
2021/08/10 07:36:53;;;;;;;6.73;3.40;;;20.70;70.70;;;;;;5047612;28;20584;-73
2021/08/10 07:39:19;;;;;;;7.37;2.90;;;20.80;70.80;;;;;;5040141;28;20470;-73
2021/08/10 07:41:44;;;;;;;7.50;3.30;;;20.80;71.00;;;;;;5049352;28;20732;-74
2021/08/10 07:44:10;;;;;;;8.27;3.30;;;20.90;70.80;;;;;;5044390;28;20452;-72
2021/08/10 07:46:36;;;;;;;5.17;3.03;;;21.00;68.30;;;;;;5042630;28;20541;-74
2021/08/10 07:49:02;;;;;;;7.40;2.67;;;21.10;68.60;;;;;;5041814;28;20209;-75
2021/08/10 07:51:28;;;;;;;4.90;3.10;;;21.30;68.00;;;;;;5048297;28;20219;-73
2021/08/10 07:53:54;;;;;;;5.90;3.50;;;21.30;68.50;;;;;;5040063;28;20195;-75
2021/08/10 07:56:19;;;;;;;4.57;3.20;;;21.20;69.40;;;;;;5046192;28;20757;-73
2021/08/10 07:58:45;;;;;;;10.93;3.20;;;21.20;68.80;;;;;;5043230;28;20205;-74
2021/08/10 08:01:11;;;;;;;7.50;3.30;;;21.30;68.60;;;;;;5045423;28;20176;-74
2021/08/10 08:03:37;;;;;;;5.30;2.60;;;21.30;67.60;;;;;;5047330;28;20189;-73
2021/08/10 08:06:04;;;;;;;5.70;3.23;;;21.40;68.60;;;;;;5048767;28;20470;-76
2021/08/10 08:08:30;;;;;;;5.40;2.90;;;21.50;68.50;;;;;;5042850;28;20451;-73
2021/08/10 08:10:57;;;;;;;7.10;2.77;;;21.50;69.10;;;;;;5047493;28;20510;-74
2021/08/10 08:13:26;;;;;;;8.33;3.10;;;21.50;68.50;;;;;;5052836;28;20834;-74
2021/08/10 08:15:54;;;;;;;7.40;3.37;;;21.60;68.60;;;;;;5053587;28;20508;-73
2021/08/10 08:18:21;;;;;;;4.53;2.97;;;21.60;68.30;;;;;;5051924;28;20962;-73
2021/08/10 08:20:47;;;;;;;4.20;2.87;;;21.50;69.80;;;;;;5047634;28;20462;-73
2021/08/10 08:23:17;;;;;;;8.87;3.20;;;21.50;69.80;;;;;;5058052;28;20419;-74
2021/08/10 08:25:44;;;;;;;11.57;4.00;;;21.60;71.00;;;;;;5057824;28;20411;-71
2021/08/10 08:28:11;;;;;;;7.60;3.83;;;21.70;71.30;;;;;;5049583;28;20411;-73
2021/08/10 08:30:41;;;;;;;6.60;3.13;;;21.80;71.30;;;;;;5049890;28;20822;-74
2021/08/10 08:33:08;;;;;;;5.63;3.73;;;22.00;71.70;;;;;;5050211;28;20463;-73
2021/08/10 08:35:35;;;;;;;9.30;4.10;;;22.20;71.00;;;;;;5046133;28;20596;-74
2021/08/10 08:38:01;;;;;;;6.77;4.10;;;22.10;71.60;;;;;;5046775;28;20425;-76
2021/08/10 08:40:26;;;;;;;9.73;3.93;;;22.10;71.60;;;;;;5050457;28;20444;-73
2021/08/10 08:42:52;;;;;;;5.93;3.90;;;22.20;71.60;;;;;;5046256;28;20424;-74
2021/08/10 08:45:19;;;;;;;4.57;3.13;;;22.20;70.80;;;;;;5055782;28;20175;-73
2021/08/10 08:47:53;;;;;;;6.33;3.33;;;22.10;69.20;;;;;;5054360;28;20912;-75
2021/08/10 08:50:21;;;;;;;6.87;3.30;;;22.40;68.20;;;;;;5051471;28;20442;-73
2021/08/10 08:52:52;;;;;;;5.40;3.23;;;22.40;68.20;;;;;;5048455;28;20418;-73
2021/08/10 08:55:20;;;;;;;4.23;3.20;;;22.60;69.10;;;;;;5043514;28;20469;-75
2021/08/10 08:57:46;;;;;;;5.07;3.10;;;22.60;67.90;;;;;;5047510;28;20417;-75
2021/08/10 09:00:13;;;;;;;6.20;3.20;;;22.40;65.70;;;;;;5039200;28;21007;-74
2021/08/10 09:02:39;;;;;;;6.97;3.27;;;22.50;67.00;;;;;;5045336;28;20427;-74
2021/08/10 09:05:06;;;;;;;6.13;3.63;;;22.60;66.00;;;;;;5046151;28;20422;-75
2021/08/10 09:07:31;;;;;;;5.17;3.03;;;22.80;65.60;;;;;;5044454;28;20182;-72
2021/08/10 09:10:17;;;;;;;5.53;2.80;;;22.90;64.70;;;;;;5050892;28;20518;-73
2021/08/10 09:12:57;;;;;;;7.07;2.80;;;23.10;64.80;;;;;;5050733;28;20262;-73
2021/08/10 09:15:36;;;;;;;7.23;2.77;;;23.30;62.50;;;;;;5049706;28;21149;-74
2021/08/10 09:18:13;;;;;;;5.63;2.80;;;23.30;59.20;;;;;;5046714;28;20462;-74
2021/08/10 09:20:40;;;;;;;5.13;2.70;;;23.00;59.30;;;;;;5036865;28;20434;-73
2021/08/10 09:23:06;;;;;;;6.83;3.43;;;23.00;59.70;;;;;;5049268;28;20435;-73
2021/08/10 09:25:34;;;;;;;4.53;2.63;;;23.10;60.10;;;;;;5050409;28;20505;-73
2021/08/10 09:28:08;;;;;;;6.00;2.93;;;23.20;59.60;;;;;;5051101;28;20457;-72
2021/08/10 09:30:34;;;;;;;6.13;2.63;;;23.10;60.60;;;;;;5050858;28;20440;-74
2021/08/10 09:33:07;;;;;;;4.90;2.43;;;23.10;60.40;;;;;;5051066;28;20425;-74
2021/08/10 09:35:35;;;;;;;3.80;2.73;;;23.10;60.60;;;;;;5042715;28;20561;-75
2021/08/10 09:38:05;;;;;;;4.20;2.90;;;23.10;60.90;;;;;;5046252;28;20510;-74
2021/08/10 09:40:34;;;;;;;8.40;2.73;;;23.10;61.60;;;;;;5049955;28;20456;-75
2021/08/10 09:43:29;;;;;;;5.07;2.73;;;23.10;61.90;;;;;;5045220;28;20482;-74
2021/08/10 09:46:18;;;;;;;6.27;2.57;;;23.20;60.40;;;;;;5050613;28;20991;-72
2021/08/10 09:48:49;;;;;;;4.00;2.57;;;23.10;61.20;;;;;;5048981;28;20450;-73
2021/08/10 09:51:17;;;;;;;4.00;2.80;;;23.00;61.70;;;;;;5050759;28;20418;-74
2021/08/10 09:53:54;;;;;;;7.73;3.10;;;23.30;61.20;;;;;;5049602;28;20488;-72
2021/08/10 09:56:20;;;;;;;4.03;2.70;;;23.50;61.20;;;;;;5049350;28;20562;-73
2021/08/10 09:58:59;;;;;;;6.13;2.97;;;23.70;60.60;;;;;;5050223;28;20994;-74
2021/08/10 10:01:32;;;;;;;4.60;2.73;;;23.90;61.20;;;;;;5050018;28;20187;-72
2021/08/10 10:04:19;;;;;;;6.80;2.53;;;24.10;61.00;;;;;;5046326;28;20779;-73
2021/08/10 10:06:46;;;;;;;3.90;2.60;;;24.40;58.40;;;;;;5050434;28;20405;-76
2021/08/10 10:09:13;;;;;;;4.60;3.03;;;24.30;58.80;;;;;;5048487;28;20971;-74
2021/08/10 10:11:41;;;;;;;4.57;3.10;;;24.30;59.60;;;;;;5048900;28;20582;-73
2021/08/10 10:14:08;;;;;;;4.93;2.67;;;24.50;57.30;;;;;;5051119;28;20413;-73
2021/08/10 10:16:35;;;;;;;4.20;2.83;;;24.50;54.20;;;;;;5045324;28;20478;-74
2021/08/10 10:19:12;;;;;;;4.90;2.47;;;24.30;54.90;;;;;;5046634;28;21062;-74
2021/08/10 10:21:59;;;;;;;5.13;3.00;;;24.30;53.70;;;;;;5043030;28;20432;-73
2021/08/10 10:24:26;;;;;;;4.77;2.77;;;24.40;53.40;;;;;;5043762;28;20426;-72
2021/08/10 10:27:02;;;;;;;5.60;2.43;;;24.20;53.60;;;;;;5049995;28;20938;-73
2021/08/10 10:29:28;;;;;;;4.30;2.50;;;24.10;54.00;;;;;;5042501;28;20437;-73
2021/08/10 10:31:55;;;;;;;6.20;3.00;;;23.80;55.40;;;;;;5049858;28;20418;-73
2021/08/10 10:34:21;;;;;;;5.33;2.20;;;23.70;56.90;;;;;;5046188;28;20451;-74
2021/08/10 10:36:48;;;;;;;4.43;2.23;;;23.90;55.80;;;;;;5043861;28;20447;-74
2021/08/10 10:39:24;;;;;;;3.90;2.50;;;24.00;56.00;;;;;;5041817;28;20467;-73
2021/08/10 10:41:53;;;;;;;4.50;2.60;;;23.90;55.70;;;;;;5049871;28;20438;-74
2021/08/10 10:44:52;;;;;;;4.07;2.60;;;24.00;56.00;;;;;;5049378;28;20877;-73
2021/08/10 10:47:24;;;;;;;5.60;2.60;;;24.10;55.80;;;;;;5046187;28;20432;-74
2021/08/10 10:49:55;;;;;;;4.80;2.70;;;24.00;57.30;;;;;;5053906;28;20448;-74
2021/08/10 10:52:21;;;;;;;3.40;2.43;;;24.30;56.60;;;;;;5048269;28;20811;-73
2021/08/10 10:54:47;;;;;;;4.67;2.50;;;24.30;56.60;;;;;;5049933;28;20429;-74
2021/08/10 10:57:31;;;;;;;6.47;2.90;;;24.60;56.20;;;;;;5048380;28;20428;-73
2021/08/10 10:59:58;;;;;;;3.43;2.33;;;24.80;55.70;;;;;;5046182;28;20483;-73
2021/08/10 11:02:26;;;;;;;5.70;2.50;;;25.00;56.10;;;;;;5043018;28;20429;-73
2021/08/10 11:05:07;;;;;;;5.90;3.03;;;25.30;54.90;;;;;;5049664;28;20418;-72
2021/08/10 11:07:47;;;;;;;4.70;2.60;;;25.50;55.20;;;;;;5049916;28;20411;-74
2021/08/10 11:10:36;;;;;;;4.17;2.80;;;25.80;54.50;;;;;;5040848;28;20895;-73
2021/08/10 11:13:04;;;;;;;5.47;2.80;;;26.00;54.00;;;;;;5049105;28;20424;-73
2021/08/10 11:15:45;;;;;;;5.30;2.37;;;26.00;53.80;;;;;;5041873;28;20428;-74
2021/08/10 11:18:11;;;;;;;6.37;3.07;;;26.00;53.30;;;;;;5049687;28;20426;-75
2021/08/10 11:20:46;;;;;;;4.70;2.50;;;25.60;53.80;;;;;;5043279;28;20451;-72
2021/08/10 11:23:21;;;;;;;5.50;2.77;;;25.30;54.80;;;;;;5050756;28;20189;-75
2021/08/10 11:25:50;;;;;;;5.27;2.90;;;25.30;55.60;;;;;;5052955;28;20415;-72
2021/08/10 11:28:46;;;;;;;5.23;3.07;;;25.50;54.90;;;;;;5043727;28;20453;-74
2021/08/10 11:31:34;;;;;;;8.00;2.83;;;25.50;55.30;;;;;;5047203;28;20504;-74
2021/08/10 11:34:00;;;;;;;4.40;3.30;;;25.70;54.40;;;;;;5051956;28;20418;-73
2021/08/10 11:36:26;;;;;;;4.80;2.93;;;25.80;54.60;;;;;;5047146;28;20467;-74
2021/08/10 11:39:03;;;;;;;4.77;3.40;;;25.90;54.50;;;;;;5052794;28;20218;-73
2021/08/10 11:41:34;;;;;;;7.50;3.00;;;25.90;54.00;;;;;;5047297;28;20509;-74
2021/08/10 11:44:03;;;;;;;5.77;2.83;;;25.70;54.00;;;;;;5053699;28;20493;-74
2021/08/10 11:46:29;;;;;;;3.73;2.60;;;25.20;55.00;;;;;;5039012;28;20526;-72
2021/08/10 11:48:56;;;;;;;4.40;2.63;;;25.00;56.00;;;;;;5055236;28;20926;-73
2021/08/10 11:51:24;;;;;;;7.87;2.97;;;25.20;55.80;;;;;;5056193;28;20183;-74
2021/08/10 11:53:54;;;;;;;5.00;3.23;;;25.20;55.60;;;;;;5048764;28;20430;-74
2021/08/10 11:56:40;;;;;;;5.70;3.27;;;25.30;55.40;;;;;;5054182;28;20912;-75
2021/08/10 11:59:15;;;;;;;6.43;2.73;;;25.30;54.90;;;;;;5053529;28;20481;-72
2021/08/10 12:01:41;;;;;;;3.63;2.80;;;25.40;55.20;;;;;;5051737;28;20484;-73
2021/08/10 12:04:22;;;;;;;8.80;3.17;;;25.70;55.40;;;;;;5052375;28;21282;-73
2021/08/10 12:06:54;;;;;;;4.20;2.93;;;25.70;54.10;;;;;;5045713;28;20417;-73
2021/08/10 12:09:24;;;;;;;5.43;3.10;;;25.90;54.10;;;;;;5049091;28;21023;-72
2021/08/10 12:11:57;;;;;;;3.73;2.90;;;25.90;53.30;;;;;;5046866;28;20434;-72
2021/08/10 12:14:25;;;;;;;6.17;2.83;;;25.70;54.40;;;;;;5050027;28;20808;-74
2021/08/10 12:17:02;;;;;;;6.53;3.10;;;25.80;53.60;;;;;;5052135;28;20434;-72
2021/08/10 12:19:28;;;;;;;4.37;3.00;;;25.80;53.80;;;;;;5043044;28;21015;-75
2021/08/10 12:21:54;;;;;;;5.10;3.33;;;26.00;53.80;;;;;;5044806;28;20423;-76
2021/08/10 12:24:33;;;;;;;6.47;3.20;;;25.90;54.40;;;;;;5045286;28;20429;-75
2021/08/10 12:27:01;;;;;;;4.40;3.10;;;25.50;55.80;;;;;;5048601;28;20183;-74
2021/08/10 12:29:36;;;;;;;4.57;3.13;;;25.20;57.00;;;;;;5048602;28;20461;-73
2021/08/10 12:32:03;;;;;;;4.00;3.07;;;25.10;57.70;;;;;;5052435;28;20554;-73
2021/08/10 12:34:34;;;;;;;6.47;3.37;;;25.10;57.30;;;;;;5050070;28;20424;-73
2021/08/10 12:37:00;;;;;;;4.53;3.20;;;25.10;57.70;;;;;;5046867;28;20435;-73
2021/08/10 12:39:27;;;;;;;6.00;3.10;;;25.30;57.40;;;;;;5037500;28;20468;-74
2021/08/10 12:41:56;;;;;;;5.27;2.87;;;25.30;56.50;;;;;;5053260;28;20432;-73
2021/08/10 12:44:24;;;;;;;4.50;3.40;;;25.40;56.60;;;;;;5047131;28;20424;-73
2021/08/10 12:46:54;;;;;;;5.30;3.33;;;25.50;56.80;;;;;;5051249;28;20472;-76
2021/08/10 12:49:35;;;;;;;5.67;3.47;;;25.70;56.10;;;;;;5045057;28;20446;-73
2021/08/10 12:52:07;;;;;;;7.30;3.30;;;25.60;56.40;;;;;;5048761;28;20548;-73
2021/08/10 12:54:35;;;;;;;6.83;3.10;;;25.80;56.00;;;;;;5042452;28;20422;-74
2021/08/10 12:57:02;;;;;;;4.47;3.00;;;26.10;55.40;;;;;;5056060;28;20438;-73